Miami, Florida
Traffic Map
Current Weather Conditions
Miami, Florida
Broken Clouds
Broken Clouds
86°
Feels Like: 96°
Wind Chill: 86° Ceiling: 30000
Heat Index: 96° Visibility: 10mi
Dew Point: 76° Wind: 5mph
Humidity: 72% Direction: 170° (S)
Pressure: 29.98in Gusts: 0mph
Raw Report DataKMIA 011353Z 17004KT 10SM SCT025TCU BKN300 30/24 A2998 RMK AO2 SLP153 CB DSNT W TCU OHD-SW-W T03000244
Traffic Incident Summary
Active as of:
Severity:
Category:
InformationThere was an issue retrieving the traffic information for this location. Please try a different location or try again shortly.
Advertisements
Track Severe Weather on mobile